クライストチャーチ の空港の天気 - METARとTAF

クライストチャーチ国際空港 ( NZCH / CHC ) - ニュージーランド クライストチャーチ
飛行場実況気象(Metar)
観測時間11/27 20:30 NZDT (11/27 07:30 UTC)
風向・風速南南西 6m/s
視程10km以上
天気現象
全天の8割程度の雲 雲底高度 1430m
気温11℃
湿度82%
気圧1003hPa
METARNZCH 270730Z AUTO 21011KT 9999 BKN047/// 11/08 Q1003 NOSIG
過去の天気等 Google飛行場航空写真 Wunderground天気予報

過去48時間のMETAR

飛行場予報(TAF)
発表時間: 11/27 18:13 NZDT (11/27 05:13 UTC)
予報対象時間: 27日19時 NZDT ~ 29日1時 NZDT
風向・風速南 6m/s
視程10km以上
天気現象弱い雨
全天の4割程度の雲 雲底高度 300m
全天を覆う雲 雲底高度 760m
27日19時 NZDT ~ 27日21時 NZDT に一時的に
視程3000m
天気現象雨霧雨
27日22時 NZDT から
風向・風速西南西 3m/s
視程10km以上
全天の4割程度の雲 雲底高度 1070m
28日11時 NZDT ~ 28日13時 NZDT に徐々に
風向・風速東北東 6m/s
28日21時 NZDT ~ 28日23時 NZDT に徐々に
風向・風速不定 1m/s
TAF NZCH 270513Z 2706/2812 18012KT 9999 -RA SCT010 OVC025
TEMPO 2706/2708 3000 RADZ
FM270900 24005KT 9999 SCT035
BECMG 2722/2800 06012KT
BECMG 2808/2810 VRB02KT